sensor_id;sensor_type;location;lat;lon;timestamp;pressure;altitude;pressure_sealevel;temperature;humidity
26531;BME280;14201;43.188;24.160;2023-09-30T00:02:19;100003.88;;;19.40;59.07
26531;BME280;14201;43.188;24.160;2023-09-30T00:04:45;100013.66;;;19.47;58.95
26531;BME280;14201;43.188;24.160;2023-09-30T00:07:10;100003.03;;;19.42;58.99
26531;BME280;14201;43.188;24.160;2023-09-30T00:09:36;100000.22;;;19.28;59.48
26531;BME280;14201;43.188;24.160;2023-09-30T00:12:01;99995.84;;;19.31;59.19
26531;BME280;14201;43.188;24.160;2023-09-30T00:14:27;99997.56;;;19.28;59.53
26531;BME280;14201;43.188;24.160;2023-09-30T00:16:52;99996.53;;;19.17;59.54
26531;BME280;14201;43.188;24.160;2023-09-30T00:19:17;99997.38;;;19.12;59.76
26531;BME280;14201;43.188;24.160;2023-09-30T00:21:43;100000.06;;;19.16;59.39
26531;BME280;14201;43.188;24.160;2023-09-30T00:24:08;99985.94;;;19.13;59.73
26531;BME280;14201;43.188;24.160;2023-09-30T00:26:34;99996.59;;;19.20;59.41
26531;BME280;14201;43.188;24.160;2023-09-30T00:28:59;99989.50;;;19.16;59.64
26531;BME280;14201;43.188;24.160;2023-09-30T00:31:25;99991.31;;;19.20;59.95
26531;BME280;14201;43.188;24.160;2023-09-30T00:33:50;99992.19;;;19.21;59.70
26531;BME280;14201;43.188;24.160;2023-09-30T00:36:15;99994.03;;;19.26;58.90
26531;BME280;14201;43.188;24.160;2023-09-30T00:38:41;99997.59;;;19.30;59.14
26531;BME280;14201;43.188;24.160;2023-09-30T00:41:07;99991.47;;;19.33;58.96
26531;BME280;14201;43.188;24.160;2023-09-30T00:43:32;99993.25;;;19.34;59.39
26531;BME280;14201;43.188;24.160;2023-09-30T00:48:33;99988.59;;;19.14;59.29
26531;BME280;14201;43.188;24.160;2023-09-30T00:50:59;99977.09;;;19.09;59.52
26531;BME280;14201;43.188;24.160;2023-09-30T00:53:24;99981.41;;;19.02;59.80
26531;BME280;14201;43.188;24.160;2023-09-30T00:55:50;99981.19;;;18.87;60.04
26531;BME280;14201;43.188;24.160;2023-09-30T00:58:16;99977.00;;;19.03;59.64
26531;BME280;14201;43.188;24.160;2023-09-30T01:00:41;99980.63;;;19.11;58.98
26531;BME280;14201;43.188;24.160;2023-09-30T01:03:07;99981.66;;;19.22;59.09
26531;BME280;14201;43.188;24.160;2023-09-30T01:05:32;99986.09;;;19.26;58.93
26531;BME280;14201;43.188;24.160;2023-09-30T01:08:00;99980.78;;;19.22;58.80
26531;BME280;14201;43.188;24.160;2023-09-30T01:10:26;99982.38;;;19.09;58.77
26531;BME280;14201;43.188;24.160;2023-09-30T01:12:52;99984.97;;;19.06;59.49
26531;BME280;14201;43.188;24.160;2023-09-30T01:15:17;99992.00;;;19.05;59.29
26531;BME280;14201;43.188;24.160;2023-09-30T01:17:43;99990.25;;;19.06;59.40
26531;BME280;14201;43.188;24.160;2023-09-30T01:20:08;99991.13;;;19.06;58.94
26531;BME280;14201;43.188;24.160;2023-09-30T01:22:36;99986.78;;;19.10;58.91
26531;BME280;14201;43.188;24.160;2023-09-30T01:25:01;99979.75;;;19.11;58.78
26531;BME280;14201;43.188;24.160;2023-09-30T01:27:26;99988.56;;;19.10;58.82
26531;BME280;14201;43.188;24.160;2023-09-30T01:29:52;99990.31;;;19.11;58.47
26531;BME280;14201;43.188;24.160;2023-09-30T01:32:17;99988.59;;;19.14;57.63
26531;BME280;14201;43.188;24.160;2023-09-30T01:34:43;99992.91;;;19.09;57.89
26531;BME280;14201;43.188;24.160;2023-09-30T01:37:09;100003.41;;;19.03;58.41
26531;BME280;14201;43.188;24.160;2023-09-30T01:39:34;100011.38;;;19.06;57.95
26531;BME280;14201;43.188;24.160;2023-09-30T01:42:00;100009.47;;;18.94;58.45
26531;BME280;14201;43.188;24.160;2023-09-30T01:44:25;100009.38;;;18.89;58.48
26531;BME280;14201;43.188;24.160;2023-09-30T01:46:51;100002.34;;;18.88;58.60
26531;BME280;14201;43.188;24.160;2023-09-30T01:49:16;100006.72;;;18.86;58.76
26531;BME280;14201;43.188;24.160;2023-09-30T01:51:43;100003.19;;;18.87;58.67
26531;BME280;14201;43.188;24.160;2023-09-30T01:54:08;100010.03;;;18.76;58.78
26531;BME280;14201;43.188;24.160;2023-09-30T01:56:34;100000.44;;;18.80;58.93
26531;BME280;14201;43.188;24.160;2023-09-30T01:58:59;99999.53;;;18.79;59.17
26531;BME280;14201;43.188;24.160;2023-09-30T02:01:25;100004.69;;;18.72;60.27
26531;BME280;14201;43.188;24.160;2023-09-30T02:03:50;100007.28;;;18.67;61.30
26531;BME280;14201;43.188;24.160;2023-09-30T02:06:15;100002.66;;;18.54;61.14
26531;BME280;14201;43.188;24.160;2023-09-30T02:08:41;100009.47;;;18.41;61.19
26531;BME280;14201;43.188;24.160;2023-09-30T02:11:07;100002.44;;;17.89;63.22
26531;BME280;14201;43.188;24.160;2023-09-30T02:13:33;99995.97;;;17.31;66.20
26531;BME280;14201;43.188;24.160;2023-09-30T02:15:59;99997.06;;;17.39;66.43
26531;BME280;14201;43.188;24.160;2023-09-30T02:18:25;99996.28;;;17.46;66.25
26531;BME280;14201;43.188;24.160;2023-09-30T02:20:50;99992.84;;;17.49;65.47
26531;BME280;14201;43.188;24.160;2023-09-30T02:23:15;99990.34;;;17.55;65.91
26531;BME280;14201;43.188;24.160;2023-09-30T02:25:42;99992.09;;;17.56;65.85
26531;BME280;14201;43.188;24.160;2023-09-30T02:28:08;99984.00;;;17.45;65.92
26531;BME280;14201;43.188;24.160;2023-09-30T02:30:33;99981.25;;;17.41;66.24
26531;BME280;14201;43.188;24.160;2023-09-30T02:32:59;99986.53;;;17.41;66.18
26531;BME280;14201;43.188;24.160;2023-09-30T02:35:24;99988.34;;;17.43;66.12
26531;BME280;14201;43.188;24.160;2023-09-30T02:37:51;99991.03;;;17.45;66.00
26531;BME280;14201;43.188;24.160;2023-09-30T02:40:17;99987.41;;;17.40;66.10
26531;BME280;14201;43.188;24.160;2023-09-30T02:42:42;99996.09;;;17.36;66.14
26531;BME280;14201;43.188;24.160;2023-09-30T02:45:08;99995.19;;;17.34;66.31
26531;BME280;14201;43.188;24.160;2023-09-30T02:47:34;99997.00;;;17.38;66.04
26531;BME280;14201;43.188;24.160;2023-09-30T02:50:00;99998.25;;;17.12;67.04
26531;BME280;14201;43.188;24.160;2023-09-30T02:52:25;100009.44;;;17.04;67.39
26531;BME280;14201;43.188;24.160;2023-09-30T02:54:50;100001.28;;;16.91;67.79
26531;BME280;14201;43.188;24.160;2023-09-30T02:57:17;100000.44;;;16.92;67.63
26531;BME280;14201;43.188;24.160;2023-09-30T02:59:43;100002.28;;;16.98;67.11
26531;BME280;14201;43.188;24.160;2023-09-30T03:02:09;100001.38;;;16.95;67.19
26531;BME280;14201;43.188;24.160;2023-09-30T03:04:34;100002.28;;;16.97;67.16
26531;BME280;14201;43.188;24.160;2023-09-30T03:07:01;100002.25;;;16.95;67.15
26531;BME280;14201;43.188;24.160;2023-09-30T03:09:27;100001.41;;;16.98;66.83
26531;BME280;14201;43.188;24.160;2023-09-30T03:11:52;99999.56;;;16.93;66.83
26531;BME280;14201;43.188;24.160;2023-09-30T03:14:21;100003.88;;;16.90;66.81
26531;BME280;14201;43.188;24.160;2023-09-30T03:16:46;99996.84;;;16.89;66.93
26531;BME280;14201;43.188;24.160;2023-09-30T03:19:12;100004.63;;;16.84;67.32
26531;BME280;14201;43.188;24.160;2023-09-30T03:21:37;100001.06;;;16.82;67.52
26531;BME280;14201;43.188;24.160;2023-09-30T03:24:03;100000.91;;;16.76;66.88
26531;BME280;14201;43.188;24.160;2023-09-30T03:26:29;100006.91;;;16.70;67.18
26531;BME280;14201;43.188;24.160;2023-09-30T03:28:55;99995.41;;;16.65;67.14
26531;BME280;14201;43.188;24.160;2023-09-30T03:31:20;100004.09;;;16.63;67.29
26531;BME280;14201;43.188;24.160;2023-09-30T03:33:46;99996.16;;;16.60;66.79
26531;BME280;14201;43.188;24.160;2023-09-30T03:36:11;99996.06;;;16.57;66.84
26531;BME280;14201;43.188;24.160;2023-09-30T03:38:37;99996.06;;;16.57;66.62
26531;BME280;14201;43.188;24.160;2023-09-30T03:41:02;100002.00;;;16.49;67.15
26531;BME280;14201;43.188;24.160;2023-09-30T03:43:28;100005.38;;;16.44;67.42
26531;BME280;14201;43.188;24.160;2023-09-30T03:45:53;100007.81;;;16.36;67.46
26531;BME280;14201;43.188;24.160;2023-09-30T03:48:19;100004.25;;;16.32;67.82
26531;BME280;14201;43.188;24.160;2023-09-30T03:50:44;100005.97;;;16.30;67.79
26531;BME280;14201;43.188;24.160;2023-09-30T03:53:10;100008.47;;;16.26;68.22
26531;BME280;14201;43.188;24.160;2023-09-30T03:55:36;100008.41;;;16.24;68.48
26531;BME280;14201;43.188;24.160;2023-09-30T03:58:02;100006.50;;;16.19;68.58
26531;BME280;14201;43.188;24.160;2023-09-30T04:00:28;100004.72;;;16.16;68.12
26531;BME280;14201;43.188;24.160;2023-09-30T04:02:54;100005.31;;;16.06;66.90
26531;BME280;14201;43.188;24.160;2023-09-30T04:05:23;100006.72;;;15.93;67.75
26531;BME280;14201;43.188;24.160;2023-09-30T04:07:58;100015.28;;;15.84;67.59
26531;BME280;14201;43.188;24.160;2023-09-30T04:10:23;100012.44;;;15.77;67.65
26531;BME280;14201;43.188;24.160;2023-09-30T04:12:49;100016.72;;;15.73;68.21
26531;BME280;14201;43.188;24.160;2023-09-30T04:15:14;100022.53;;;15.64;69.41
26531;BME280;14201;43.188;24.160;2023-09-30T04:17:40;100024.56;;;15.41;70.74
26531;BME280;14201;43.188;24.160;2023-09-30T04:20:06;100021.94;;;15.43;69.60
26531;BME280;14201;43.188;24.160;2023-09-30T04:22:35;100018.56;;;15.47;68.59
26531;BME280;14201;43.188;24.160;2023-09-30T04:25:02;100031.56;;;15.42;69.02
26531;BME280;14201;43.188;24.160;2023-09-30T04:27:32;100026.94;;;15.33;69.55
26531;BME280;14201;43.188;24.160;2023-09-30T04:29:58;100024.97;;;15.26;70.26
26531;BME280;14201;43.188;24.160;2023-09-30T04:32:24;100031.03;;;15.24;70.27
26531;BME280;14201;43.188;24.160;2023-09-30T04:34:51;100040.63;;;15.23;70.37
26531;BME280;14201;43.188;24.160;2023-09-30T04:37:16;100038.84;;;15.22;70.29
26531;BME280;14201;43.188;24.160;2023-09-30T04:39:42;100034.50;;;15.23;70.65
26531;BME280;14201;43.188;24.160;2023-09-30T04:42:08;100031.06;;;15.25;70.92
26531;BME280;14201;43.188;24.160;2023-09-30T04:44:36;100044.28;;;15.28;69.46
26531;BME280;14201;43.188;24.160;2023-09-30T04:47:04;100045.09;;;15.26;68.51
26531;BME280;14201;43.188;24.160;2023-09-30T04:49:29;100040.63;;;15.23;69.30
26531;BME280;14201;43.188;24.160;2023-09-30T04:51:56;100048.41;;;15.20;68.89
26531;BME280;14201;43.188;24.160;2023-09-30T04:54:21;100051.13;;;15.23;69.24
26531;BME280;14201;43.188;24.160;2023-09-30T04:56:47;100051.13;;;15.23;69.34
26531;BME280;14201;43.188;24.160;2023-09-30T04:59:12;100045.00;;;15.23;69.71
26531;BME280;14201;43.188;24.160;2023-09-30T05:01:39;100049.34;;;15.22;69.59
26531;BME280;14201;43.188;24.160;2023-09-30T05:04:04;100052.03;;;15.24;69.71
26531;BME280;14201;43.188;24.160;2023-09-30T05:06:32;100048.66;;;15.29;70.16
26531;BME280;14201;43.188;24.160;2023-09-30T05:08:58;100046.25;;;15.35;70.28
26531;BME280;14201;43.188;24.160;2023-09-30T05:11:26;100050.81;;;15.41;70.36
26531;BME280;14201;43.188;24.160;2023-09-30T05:13:52;100059.63;;;15.45;70.68
26531;BME280;14201;43.188;24.160;2023-09-30T05:16:18;100060.19;;;15.63;70.15
26531;BME280;14201;43.188;24.160;2023-09-30T05:18:44;100056.16;;;15.74;69.77
26531;BME280;14201;43.188;24.160;2023-09-30T05:21:09;100061.84;;;15.90;69.66
26531;BME280;14201;43.188;24.160;2023-09-30T05:23:36;100064.53;;;15.93;69.17
26531;BME280;14201;43.188;24.160;2023-09-30T05:26:02;100065.75;;;16.06;68.65
26531;BME280;14201;43.188;24.160;2023-09-30T05:28:28;100066.91;;;16.16;69.23
26531;BME280;14201;43.188;24.160;2023-09-30T05:30:53;100065.41;;;16.25;68.62
26531;BME280;14201;43.188;24.160;2023-09-30T05:33:19;100059.69;;;16.42;69.95
26531;BME280;14201;43.188;24.160;2023-09-30T05:35:45;100067.06;;;16.57;69.57
26531;BME280;14201;43.188;24.160;2023-09-30T05:38:11;100068.22;;;16.68;68.45
26531;BME280;14201;43.188;24.160;2023-09-30T05:40:37;100073.94;;;16.85;68.57
26531;BME280;14201;43.188;24.160;2023-09-30T05:43:03;100069.06;;;17.02;69.08
26531;BME280;14201;43.188;24.160;2023-09-30T05:45:31;100071.19;;;17.18;68.69
26531;BME280;14201;43.188;24.160;2023-09-30T05:47:56;100081.31;;;17.41;67.07
26531;BME280;14201;43.188;24.160;2023-09-30T05:50:24;100074.72;;;17.60;66.92
26531;BME280;14201;43.188;24.160;2023-09-30T05:52:53;100079.66;;;17.84;67.37
26531;BME280;14201;43.188;24.160;2023-09-30T05:55:19;100087.84;;;17.99;67.01
26531;BME280;14201;43.188;24.160;2023-09-30T05:57:50;100084.84;;;18.28;65.78
26531;BME280;14201;43.188;24.160;2023-09-30T06:00:16;100083.41;;;18.45;64.96
26531;BME280;14201;43.188;24.160;2023-09-30T06:02:55;100092.66;;;18.72;64.46
26531;BME280;14201;43.188;24.160;2023-09-30T06:05:21;100084.19;;;18.92;63.70
26531;BME280;14201;43.188;24.160;2023-09-30T06:07:51;100093.34;;;19.14;63.25
26531;BME280;14201;43.188;24.160;2023-09-30T06:10:19;100096.28;;;19.34;61.47
26531;BME280;14201;43.188;24.160;2023-09-30T06:12:47;100094.75;;;19.51;61.36
26531;BME280;14201;43.188;24.160;2023-09-30T06:15:14;100094.19;;;19.72;60.86
26531;BME280;14201;43.188;24.160;2023-09-30T06:17:41;100093.47;;;19.89;60.83
26531;BME280;14201;43.188;24.160;2023-09-30T06:20:07;100092.78;;;20.03;60.18
26531;BME280;14201;43.188;24.160;2023-09-30T06:22:34;100092.94;;;20.19;59.59
26531;BME280;14201;43.188;24.160;2023-09-30T06:25:00;100105.53;;;20.41;58.68
26531;BME280;14201;43.188;24.160;2023-09-30T06:27:25;100095.06;;;20.54;58.57
26531;BME280;14201;43.188;24.160;2023-09-30T06:29:51;100103.25;;;20.81;57.35
26531;BME280;14201;43.188;24.160;2023-09-30T06:32:17;100093.72;;;21.02;56.85
26531;BME280;14201;43.188;24.160;2023-09-30T06:34:42;100105.28;;;21.16;56.89
26531;BME280;14201;43.188;24.160;2023-09-30T06:37:08;100107.31;;;21.56;56.09
26531;BME280;14201;43.188;24.160;2023-09-30T06:39:34;100115.44;;;22.02;53.58
26531;BME280;14201;43.188;24.160;2023-09-30T06:41:59;100116.47;;;22.26;52.17
26531;BME280;14201;43.188;24.160;2023-09-30T06:44:25;100110.28;;;22.54;52.07
26531;BME280;14201;43.188;24.160;2023-09-30T06:46:51;100120.03;;;22.68;51.85
26531;BME280;14201;43.188;24.160;2023-09-30T06:49:16;100120.03;;;22.75;52.58
26531;BME280;14201;43.188;24.160;2023-09-30T06:51:42;100128.00;;;22.69;50.98
26531;BME280;14201;43.188;24.160;2023-09-30T06:54:08;100119.16;;;22.64;51.00
26531;BME280;14201;43.188;24.160;2023-09-30T06:56:34;100123.59;;;22.80;50.90
26531;BME280;14201;43.188;24.160;2023-09-30T06:59:00;100124.50;;;22.92;50.63
26531;BME280;14201;43.188;24.160;2023-09-30T07:01:26;100117.41;;;23.06;49.80
26531;BME280;14201;43.188;24.160;2023-09-30T07:03:53;100128.03;;;23.00;49.43
26531;BME280;14201;43.188;24.160;2023-09-30T07:06:23;100130.69;;;23.25;48.39
26531;BME280;14201;43.188;24.160;2023-09-30T07:08:49;100131.53;;;23.48;48.57
26531;BME280;14201;43.188;24.160;2023-09-30T07:11:14;100129.66;;;23.86;48.51
26531;BME280;14201;43.188;24.160;2023-09-30T07:13:40;100141.94;;;24.14;47.10
26531;BME280;14201;43.188;24.160;2023-09-30T07:16:05;100143.56;;;24.38;46.54
26531;BME280;14201;43.188;24.160;2023-09-30T07:18:31;100141.66;;;24.65;46.11
26531;BME280;14201;43.188;24.160;2023-09-30T07:20:57;100143.16;;;25.03;45.10
26531;BME280;14201;43.188;24.160;2023-09-30T07:23:22;100136.72;;;25.26;44.72
26531;BME280;14201;43.188;24.160;2023-09-30T07:25:48;100139.94;;;25.59;42.78
26531;BME280;14201;43.188;24.160;2023-09-30T07:28:14;100138.88;;;25.75;43.16
26531;BME280;14201;43.188;24.160;2023-09-30T07:30:40;100128.03;;;25.90;41.01
26531;BME280;14201;43.188;24.160;2023-09-30T07:33:06;100138.34;;;26.18;40.97
26531;BME280;14201;43.188;24.160;2023-09-30T07:35:33;100140.78;;;26.37;40.36
26531;BME280;14201;43.188;24.160;2023-09-30T07:37:59;100132.47;;;26.57;40.20
26531;BME280;14201;43.188;24.160;2023-09-30T07:40:24;100135.78;;;26.76;40.00
26531;BME280;14201;43.188;24.160;2023-09-30T07:42:50;100136.38;;;26.93;39.71
26531;BME280;14201;43.188;24.160;2023-09-30T07:45:16;100136.03;;;27.13;38.81
26531;BME280;14201;43.188;24.160;2023-09-30T07:47:45;100140.28;;;27.25;38.73
26531;BME280;14201;43.188;24.160;2023-09-30T07:50:14;100141.72;;;27.44;38.67
26531;BME280;14201;43.188;24.160;2023-09-30T07:52:40;100143.19;;;27.61;38.12
26531;BME280;14201;43.188;24.160;2023-09-30T07:55:08;100139.97;;;27.87;37.48
26531;BME280;14201;43.188;24.160;2023-09-30T07:57:33;100143.38;;;27.97;36.91
26531;BME280;14201;43.188;24.160;2023-09-30T07:59:59;100146.09;;;26.97;37.88
26531;BME280;14201;43.188;24.160;2023-09-30T08:02:24;100148.16;;;27.34;37.74
26531;BME280;14201;43.188;24.160;2023-09-30T08:04:53;100137.41;;;27.82;36.88
26531;BME280;14201;43.188;24.160;2023-09-30T08:07:19;100139.81;;;27.98;36.77
26531;BME280;14201;43.188;24.160;2023-09-30T08:09:44;100137.19;;;28.35;36.12
26531;BME280;14201;43.188;24.160;2023-09-30T08:12:10;100136.53;;;28.64;34.95
26531;BME280;14201;43.188;24.160;2023-09-30T08:14:35;100138.91;;;28.77;35.46
26531;BME280;14201;43.188;24.160;2023-09-30T08:17:01;100135.97;;;28.50;35.59
26531;BME280;14201;43.188;24.160;2023-09-30T08:19:28;100137.16;;;28.37;35.55
26531;BME280;14201;43.188;24.160;2023-09-30T08:21:53;100136.19;;;28.39;36.40
26531;BME280;14201;43.188;24.160;2023-09-30T08:24:18;100137.00;;;28.43;35.57
26531;BME280;14201;43.188;24.160;2023-09-30T08:26:44;100128.13;;;28.41;35.97
26531;BME280;14201;43.188;24.160;2023-09-30T08:29:09;100130.81;;;28.41;35.05
26531;BME280;14201;43.188;24.160;2023-09-30T08:31:35;100114.53;;;28.50;35.43
26531;BME280;14201;43.188;24.160;2023-09-30T08:34:01;100122.47;;;28.55;34.41
26531;BME280;14201;43.188;24.160;2023-09-30T08:36:29;100129.81;;;28.45;34.90
26531;BME280;14201;43.188;24.160;2023-09-30T08:38:55;100121.50;;;28.57;34.66
26531;BME280;14201;43.188;24.160;2023-09-30T08:41:33;100115.56;;;28.80;34.82
26531;BME280;14201;43.188;24.160;2023-09-30T08:44:00;100114.81;;;29.10;34.18
26531;BME280;14201;43.188;24.160;2023-09-30T08:46:30;100118.06;;;29.24;34.63
26531;BME280;14201;43.188;24.160;2023-09-30T08:49:01;100115.25;;;29.61;33.56
26531;BME280;14201;43.188;24.160;2023-09-30T08:51:28;100117.66;;;30.02;33.34
26531;BME280;14201;43.188;24.160;2023-09-30T08:53:54;100122.03;;;30.36;32.35
26531;BME280;14201;43.188;24.160;2023-09-30T08:56:22;100113.91;;;30.66;31.14
26531;BME280;14201;43.188;24.160;2023-09-30T08:58:49;100118.41;;;30.93;30.92
26531;BME280;14201;43.188;24.160;2023-09-30T09:01:15;100116.00;;;31.11;30.64
26531;BME280;14201;43.188;24.160;2023-09-30T09:03:41;100105.97;;;31.16;30.28
26531;BME280;14201;43.188;24.160;2023-09-30T09:06:06;100110.38;;;30.92;31.89
26531;BME280;14201;43.188;24.160;2023-09-30T09:08:32;100102.81;;;31.03;30.79
26531;BME280;14201;43.188;24.160;2023-09-30T09:10:58;100110.84;;;31.30;30.23
26531;BME280;14201;43.188;24.160;2023-09-30T09:13:27;100105.81;;;31.46;30.22
26531;BME280;14201;43.188;24.160;2023-09-30T09:16:07;100093.66;;;31.59;29.79
26531;BME280;14201;43.188;24.160;2023-09-30T09:18:33;100102.91;;;31.75;30.68
26531;BME280;14201;43.188;24.160;2023-09-30T09:23:41;100094.72;;;31.78;29.37
26531;BME280;14201;43.188;24.160;2023-09-30T09:26:07;100095.44;;;31.84;29.42
26531;BME280;14201;43.188;24.160;2023-09-30T09:28:36;100096.16;;;31.64;29.00
26531;BME280;14201;43.188;24.160;2023-09-30T09:31:17;100086.28;;;31.88;29.98
26531;BME280;14201;43.188;24.160;2023-09-30T09:33:43;100086.06;;;31.94;28.51
26531;BME280;14201;43.188;24.160;2023-09-30T09:36:09;100085.34;;;31.89;28.99
26531;BME280;14201;43.188;24.160;2023-09-30T09:38:44;100082.94;;;32.05;28.50
26531;BME280;14201;43.188;24.160;2023-09-30T09:41:10;100093.88;;;32.24;28.85
26531;BME280;14201;43.188;24.160;2023-09-30T09:43:36;100086.50;;;32.29;26.41
26531;BME280;14201;43.188;24.160;2023-09-30T09:46:02;100080.41;;;32.02;26.98
26531;BME280;14201;43.188;24.160;2023-09-30T09:48:29;100079.59;;;32.22;27.72
26531;BME280;14201;43.188;24.160;2023-09-30T09:50:55;100076.47;;;32.32;27.19
26531;BME280;14201;43.188;24.160;2023-09-30T09:53:21;100077.34;;;32.33;27.20
26531;BME280;14201;43.188;24.160;2023-09-30T09:55:48;100067.69;;;32.27;26.71
26531;BME280;14201;43.188;24.160;2023-09-30T09:58:15;100076.13;;;31.94;26.92
26531;BME280;14201;43.188;24.160;2023-09-30T10:00:41;100071.56;;;32.20;26.97
26531;BME280;14201;43.188;24.160;2023-09-30T10:03:07;100071.94;;;32.33;27.37
26531;BME280;14201;43.188;24.160;2023-09-30T10:05:33;100078.16;;;32.13;27.13
26531;BME280;14201;43.188;24.160;2023-09-30T10:08:16;100069.63;;;32.24;27.25
26531;BME280;14201;43.188;24.160;2023-09-30T10:10:43;100069.38;;;32.52;26.54
26531;BME280;14201;43.188;24.160;2023-09-30T10:13:09;100059.28;;;32.79;27.35
26531;BME280;14201;43.188;24.160;2023-09-30T10:15:54;100062.66;;;33.05;26.74
26531;BME280;14201;43.188;24.160;2023-09-30T10:18:20;100060.78;;;33.27;25.87
26531;BME280;14201;43.188;24.160;2023-09-30T10:20:45;100054.25;;;33.52;25.68
26531;BME280;14201;43.188;24.160;2023-09-30T10:23:26;100051.78;;;33.68;24.56
26531;BME280;14201;43.188;24.160;2023-09-30T10:28:47;100054.88;;;33.38;23.98
26531;BME280;14201;43.188;24.160;2023-09-30T10:31:19;100050.91;;;33.26;24.56
26531;BME280;14201;43.188;24.160;2023-09-30T10:36:29;100036.84;;;32.34;25.43
26531;BME280;14201;43.188;24.160;2023-09-30T10:38:56;100038.78;;;32.09;26.21
26531;BME280;14201;43.188;24.160;2023-09-30T10:47:49;100027.63;;;32.83;24.59
26531;BME280;14201;43.188;24.160;2023-09-30T10:49:56;100020.47;;;33.02;25.06
26531;BME280;14201;43.188;24.160;2023-09-30T10:52:22;100015.97;;;33.23;24.50
26531;BME280;14201;43.188;24.160;2023-09-30T10:54:49;100011.75;;;32.95;22.63
26531;BME280;14201;43.188;24.160;2023-09-30T10:57:26;100011.69;;;32.34;24.14
26531;BME280;14201;43.188;24.160;2023-09-30T11:00:12;100005.28;;;32.59;25.01
26531;BME280;14201;43.188;24.160;2023-09-30T11:02:52;100004.06;;;32.66;24.25
26531;BME280;14201;43.188;24.160;2023-09-30T11:05:19;99999.50;;;32.88;23.88
26531;BME280;14201;43.188;24.160;2023-09-30T11:07:48;100002.06;;;32.49;24.58
26531;BME280;14201;43.188;24.160;2023-09-30T11:10:19;99995.13;;;32.65;25.16
26531;BME280;14201;43.188;24.160;2023-09-30T11:12:57;99996.41;;;32.77;24.29
26531;BME280;14201;43.188;24.160;2023-09-30T11:15:24;99989.56;;;32.89;25.24
26531;BME280;14201;43.188;24.160;2023-09-30T11:17:52;99990.09;;;32.97;25.11
26531;BME280;14201;43.188;24.160;2023-09-30T11:20:18;99989.00;;;33.01;25.05
26531;BME280;14201;43.188;24.160;2023-09-30T11:22:44;99983.50;;;33.04;25.37
26531;BME280;14201;43.188;24.160;2023-09-30T11:25:20;99978.72;;;33.11;25.37
26531;BME280;14201;43.188;24.160;2023-09-30T11:27:46;99971.59;;;33.08;24.27
26531;BME280;14201;43.188;24.160;2023-09-30T11:30:16;99982.00;;;32.97;23.45
26531;BME280;14201;43.188;24.160;2023-09-30T11:32:58;99974.72;;;32.99;24.12
26531;BME280;14201;43.188;24.160;2023-09-30T11:35:25;99976.41;;;33.22;24.49
26531;BME280;14201;43.188;24.160;2023-09-30T11:37:51;99973.44;;;33.47;23.99
26531;BME280;14201;43.188;24.160;2023-09-30T11:40:17;99973.94;;;33.55;24.32
26531;BME280;14201;43.188;24.160;2023-09-30T11:43:07;99975.44;;;33.82;23.58
26531;BME280;14201;43.188;24.160;2023-09-30T11:45:33;99966.72;;;33.94;23.92
26531;BME280;14201;43.188;24.160;2023-09-30T11:47:59;99967.38;;;33.99;23.59
26531;BME280;14201;43.188;24.160;2023-09-30T11:50:24;99965.69;;;34.14;23.91
26531;BME280;14201;43.188;24.160;2023-09-30T11:52:50;99959.88;;;34.23;23.09
26531;BME280;14201;43.188;24.160;2023-09-30T11:55:16;99960.72;;;34.24;23.79
26531;BME280;14201;43.188;24.160;2023-09-30T11:57:42;99953.59;;;34.04;23.73
26531;BME280;14201;43.188;24.160;2023-09-30T12:00:08;99951.72;;;33.87;23.70
26531;BME280;14201;43.188;24.160;2023-09-30T12:02:39;99949.63;;;33.74;23.99
26531;BME280;14201;43.188;24.160;2023-09-30T12:05:06;99946.81;;;33.78;24.24
26531;BME280;14201;43.188;24.160;2023-09-30T12:07:37;99942.25;;;33.78;24.22
26531;BME280;14201;43.188;24.160;2023-09-30T12:10:06;99940.22;;;33.83;23.28
26531;BME280;14201;43.188;24.160;2023-09-30T12:12:32;99938.09;;;33.71;22.54
26531;BME280;14201;43.188;24.160;2023-09-30T12:14:58;99936.28;;;33.52;23.18
26531;BME280;14201;43.188;24.160;2023-09-30T12:17:23;99925.22;;;33.38;24.22
26531;BME280;14201;43.188;24.160;2023-09-30T12:19:49;99924.78;;;33.28;24.13
26531;BME280;14201;43.188;24.160;2023-09-30T12:22:15;99914.78;;;33.30;23.55
26531;BME280;14201;43.188;24.160;2023-09-30T12:24:40;99905.31;;;33.41;24.45
26531;BME280;14201;43.188;24.160;2023-09-30T12:27:06;99907.72;;;33.47;24.22
26531;BME280;14201;43.188;24.160;2023-09-30T12:29:31;99904.22;;;33.45;22.64
26531;BME280;14201;43.188;24.160;2023-09-30T12:31:57;99902.38;;;33.26;23.73
26531;BME280;14201;43.188;24.160;2023-09-30T12:34:23;99895.25;;;33.05;23.84
26531;BME280;14201;43.188;24.160;2023-09-30T12:36:51;99902.47;;;32.85;23.70
26531;BME280;14201;43.188;24.160;2023-09-30T12:39:17;99894.44;;;32.84;24.79
26531;BME280;14201;43.188;24.160;2023-09-30T12:41:50;99888.50;;;32.96;24.84
26531;BME280;14201;43.188;24.160;2023-09-30T12:44:16;99891.81;;;33.01;25.01
26531;BME280;14201;43.188;24.160;2023-09-30T12:46:42;99891.25;;;32.94;24.28
26531;BME280;14201;43.188;24.160;2023-09-30T12:49:08;99880.22;;;32.99;25.07
26531;BME280;14201;43.188;24.160;2023-09-30T12:51:35;99875.13;;;32.93;24.79
26531;BME280;14201;43.188;24.160;2023-09-30T12:54:01;99866.63;;;32.82;25.04
26531;BME280;14201;43.188;24.160;2023-09-30T12:56:27;99873.56;;;32.87;25.10
26531;BME280;14201;43.188;24.160;2023-09-30T12:58:55;99839.06;;;32.54;23.83